Time;durP1;ratioP1;P1;durP2;ratioP2;P2;SDS_P1;SDS_P2;PMS_P1;PMS_P2;Temp;Humidity;BMP_temperature;BMP_pressure;BME280_temperature;BME280_humidity;BME280_pressure;Samples;Min_cycle;Max_cycle;Signal;HPM_P1;HPM_P2
2023/12/19 00:01:07;;;;;;;12.88;9.50;;;;;;;2.58;91.53;99331.41;4090319;28;20213;-96
2023/12/19 00:03:11;;;;;;;14.02;9.63;;;;;;;2.55;91.00;99326.31;4075947;29;20716;-95
2023/12/19 00:05:14;;;;;;;14.65;10.02;;;;;;;2.56;91.12;99329.75;4068258;29;20250;-95
2023/12/19 00:07:19;;;;;;;13.82;9.60;;;;;;;2.56;91.00;99317.72;4096464;28;20217;-94
2023/12/19 00:09:22;;;;;;;12.68;9.18;;;;;;;2.56;91.09;99306.59;4093461;28;20244;-94
2023/12/19 00:11:26;;;;;;;17.33;10.80;;;;;;;2.56;91.22;99314.31;4080678;29;20757;-94
2023/12/19 00:13:29;;;;;;;14.95;9.85;;;;;;;2.55;90.89;99305.72;4091385;28;20292;-94
2023/12/19 00:15:32;;;;;;;12.35;9.18;;;;;;;2.51;90.21;99298.94;4063727;29;20823;-95
2023/12/19 00:17:35;;;;;;;16.50;9.52;;;;;;;2.47;90.47;99297.28;4079992;29;20202;-93
2023/12/19 00:19:38;;;;;;;13.45;9.32;;;;;;;2.44;90.50;99286.22;4078412;29;20290;-95
2023/12/19 00:21:42;;;;;;;13.80;9.68;;;;;;;2.40;90.44;99280.25;4078273;29;20308;-93
2023/12/19 00:23:46;;;;;;;13.07;9.25;;;;;;;2.38;90.14;99270.88;4056000;29;20211;-94
2023/12/19 00:25:50;;;;;;;14.65;10.48;;;;;;;2.31;89.11;99255.56;4060940;29;20210;-96
2023/12/19 00:27:53;;;;;;;12.25;9.68;;;;;;;2.31;89.85;99253.00;4089402;28;20203;-95
2023/12/19 00:29:55;;;;;;;11.68;9.02;;;;;;;2.33;90.24;99237.50;4078370;29;20210;-95
2023/12/19 00:31:58;;;;;;;12.30;9.05;;;;;;;2.39;91.05;99247.69;4081743;28;20791;-94
2023/12/19 00:34:02;;;;;;;12.93;9.05;;;;;;;2.38;90.96;99245.97;4065005;29;20310;-94
2023/12/19 00:36:05;;;;;;;14.57;9.20;;;;;;;2.37;91.15;99239.13;4078849;29;20231;-95
2023/12/19 00:38:09;;;;;;;15.68;9.77;;;;;;;2.38;91.25;99230.53;4077086;29;20214;-94
2023/12/19 00:40:14;;;;;;;14.25;11.15;;;;;;;2.39;91.35;99242.53;4061100;29;20294;-94
2023/12/19 00:42:17;;;;;;;26.10;16.05;;;;;;;2.42;91.52;99246.75;4086062;29;20221;-94
2023/12/19 00:44:20;;;;;;;17.13;11.90;;;;;;;2.36;91.37;99250.31;4098572;28;20202;-94
2023/12/19 00:46:24;;;;;;;14.48;11.05;;;;;;;2.33;91.74;99248.66;4080140;29;20611;-95
2023/12/19 00:48:26;;;;;;;14.98;10.70;;;;;;;2.32;91.70;99244.41;4083627;29;20208;-94
2023/12/19 00:50:29;;;;;;;14.65;10.65;;;;;;;2.33;91.35;99255.53;4092265;28;20209;-95
2023/12/19 00:52:33;;;;;;;17.23;12.35;;;;;;;2.33;91.07;99246.09;4067614;29;20211;-94
2023/12/19 00:54:36;;;;;;;14.57;10.57;;;;;;;2.30;90.69;99246.13;4074974;29;20241;-94
2023/12/19 00:56:42;;;;;;;16.45;10.43;;;;;;;2.31;90.38;99247.84;4079979;29;20277;-94
2023/12/19 00:58:46;;;;;;;17.45;10.60;;;;;;;2.28;90.51;99248.75;4062954;29;20202;-93
2023/12/19 01:00:49;;;;;;;12.13;9.65;;;;;;;2.27;89.96;99241.06;4064607;29;20666;-95
2023/12/19 01:02:52;;;;;;;14.32;9.50;;;;;;;2.24;90.12;99239.41;4077808;29;20293;-93
2023/12/19 01:04:57;;;;;;;14.80;9.52;;;;;;;2.25;89.87;99240.25;4080636;29;20241;-93
2023/12/19 01:07:00;;;;;;;18.77;15.48;;;;;;;2.27;90.29;99239.34;4081822;29;20218;-94
2023/12/19 01:09:05;;;;;;;23.02;19.33;;;;;;;2.27;90.47;99246.19;4062918;29;20970;-95
2023/12/19 01:11:09;;;;;;;16.75;12.73;;;;;;;2.27;90.50;99253.91;4080064;29;20491;-93
2023/12/19 01:13:14;;;;;;;17.38;13.98;;;;;;;2.25;90.45;99246.22;4090715;28;20704;-94
2023/12/19 01:15:17;;;;;;;17.25;12.32;;;;;;;2.28;90.30;99247.91;4075176;29;20216;-93
2023/12/19 01:17:21;;;;;;;14.38;9.32;;;;;;;2.29;90.78;99254.75;4076544;29;20205;-92
2023/12/19 01:19:24;;;;;;;13.50;10.13;;;;;;;2.30;90.87;99257.31;4086387;29;20217;-95
2023/12/19 01:21:28;;;;;;;12.70;9.20;;;;;;;2.29;90.61;99254.75;4075255;29;20217;-96
2023/12/19 01:23:31;;;;;;;13.13;10.05;;;;;;;2.29;90.91;99253.03;4090073;28;20229;-95
2023/12/19 01:25:34;;;;;;;13.98;9.45;;;;;;;2.31;90.90;99248.69;4094471;28;20209;-96
2023/12/19 01:27:37;;;;;;;13.80;9.57;;;;;;;2.27;90.30;99246.19;4076887;29;20613;-96
2023/12/19 01:29:42;;;;;;;11.48;9.27;;;;;;;2.24;90.17;99241.97;4073385;29;20307;-96
2023/12/19 01:31:44;;;;;;;10.35;8.07;;;;;;;2.21;90.19;99236.88;4080792;29;20234;-93
2023/12/19 01:33:47;;;;;;;12.07;8.68;;;;;;;2.28;90.34;99242.75;4078995;29;20210;-96
2023/12/19 01:35:51;;;;;;;13.13;9.52;;;;;;;2.20;90.71;99255.75;4080191;29;20457;-96
2023/12/19 01:37:53;;;;;;;13.57;8.90;;;;;;;2.21;90.65;99267.75;4075511;29;20230;-96
2023/12/19 01:39:57;;;;;;;13.48;9.23;;;;;;;2.18;90.14;99272.06;4079637;29;20257;-96
2023/12/19 01:42:00;;;;;;;13.25;8.77;;;;;;;2.19;89.81;99264.34;4065200;29;20210;-92
2023/12/19 01:44:03;;;;;;;11.13;8.15;;;;;;;2.19;89.86;99259.19;4078057;29;20238;-93
2023/12/19 01:46:13;;;;;;;12.15;8.25;;;;;;;2.19;89.84;99254.03;4078157;29;20780;-92
2023/12/19 01:48:18;;;;;;;9.95;7.47;;;;;;;2.18;89.38;99244.66;4060978;29;20745;-94
2023/12/19 01:50:21;;;;;;;12.43;7.70;;;;;;;2.18;89.51;99247.22;4080505;29;20234;-95
2023/12/19 01:52:24;;;;;;;11.23;7.95;;;;;;;2.21;89.84;99251.44;4079854;29;20210;-96
2023/12/19 01:54:27;;;;;;;10.02;7.70;;;;;;;2.23;89.79;99254.88;4093333;28;20196;-94
2023/12/19 01:56:31;;;;;;;13.48;7.75;;;;;;;2.22;90.25;99260.88;4065862;29;20698;-96
2023/12/19 01:58:36;;;;;;;13.07;8.65;;;;;;;2.21;89.63;99260.03;4097566;28;20199;-94
2023/12/19 02:00:39;;;;;;;9.82;7.22;;;;;;;2.16;89.99;99243.81;4077682;29;20246;-94
2023/12/19 02:02:45;;;;;;;9.70;6.85;;;;;;;2.08;89.03;99243.09;4067953;29;20211;-95
2023/12/19 02:04:51;;;;;;;10.32;7.57;;;;;;;2.08;88.93;99242.25;4065389;29;20305;-94
2023/12/19 02:06:54;;;;;;;9.05;7.18;;;;;;;2.08;89.18;99237.94;4078789;29;20203;-94
2023/12/19 02:08:58;;;;;;;11.45;7.85;;;;;;;2.09;89.69;99226.78;4078376;29;20216;-94
2023/12/19 02:11:01;;;;;;;13.05;7.82;;;;;;;2.13;89.97;99240.44;4094008;29;20250;-94
2023/12/19 02:13:04;;;;;;;11.55;8.05;;;;;;;2.14;89.93;99247.28;4095909;28;20205;-93
2023/12/19 02:15:08;;;;;;;13.13;8.43;;;;;;;2.10;89.81;99250.78;4092976;28;20269;-94
2023/12/19 02:17:11;;;;;;;16.67;10.82;;;;;;;2.06;90.12;99246.56;4080427;29;20227;-93
2023/12/19 02:19:16;;;;;;;12.25;8.30;;;;;;;2.04;90.26;99248.31;4062111;29;20734;-93
2023/12/19 02:21:19;;;;;;;11.25;7.90;;;;;;;1.96;88.98;99235.56;4083247;29;20210;-94
2023/12/19 02:23:24;;;;;;;10.73;7.68;;;;;;;1.93;88.82;99237.34;4081247;29;20735;-94
2023/12/19 02:25:27;;;;;;;11.20;8.25;;;;;;;1.94;89.64;99241.63;4065886;29;20209;-95
2023/12/19 02:27:30;;;;;;;11.18;7.15;;;;;;;1.94;89.89;99218.50;4065787;29;20677;-93
2023/12/19 02:29:33;;;;;;;13.05;7.70;;;;;;;1.95;89.61;99207.31;4092827;29;20237;-96
2023/12/19 02:31:36;;;;;;;10.65;7.45;;;;;;;1.96;89.49;99214.16;4063220;29;20266;-95
2023/12/19 02:33:39;;;;;;;10.18;7.25;;;;;;;1.96;90.13;99221.88;4065300;29;20211;-94
2023/12/19 02:35:42;;;;;;;12.75;8.05;;;;;;;1.95;89.67;99213.28;4060487;29;20725;-94
2023/12/19 02:37:47;;;;;;;11.20;7.00;;;;;;;1.97;89.76;99187.56;4079913;29;20263;-95
2023/12/19 02:39:51;;;;;;;11.20;7.20;;;;;;;2.02;89.57;99196.06;4081354;29;20603;-93
2023/12/19 02:41:55;;;;;;;11.02;7.18;;;;;;;1.98;90.38;99207.25;4080199;29;20727;-96
2023/12/19 02:43:58;;;;;;;17.40;10.10;;;;;;;1.90;89.55;99209.13;4067667;29;20749;-96
2023/12/19 02:46:00;;;;;;;15.00;9.70;;;;;;;1.86;90.00;99204.06;4077798;29;20651;-96
2023/12/19 02:48:05;;;;;;;13.05;8.80;;;;;;;1.81;89.15;99201.56;4080669;29;20265;-93
2023/12/19 02:50:09;;;;;;;13.43;8.20;;;;;;;1.78;88.94;99201.59;4090860;28;21098;-92
2023/12/19 02:52:12;;;;;;;12.57;8.52;;;;;;;1.76;89.07;99205.94;4092405;29;20210;-94
2023/12/19 02:54:15;;;;;;;11.90;8.05;;;;;;;1.77;89.84;99206.78;4074322;29;20735;-95
2023/12/19 02:56:20;;;;;;;11.43;7.90;;;;;;;1.78;89.49;99206.75;4079041;29;20243;-93
2023/12/19 02:58:22;;;;;;;12.82;7.60;;;;;;;1.81;89.37;99208.44;4079215;29;20262;-95
2023/12/19 03:00:25;;;;;;;14.00;8.35;;;;;;;1.76;89.21;99205.94;4080081;29;20680;-93
2023/12/19 03:02:29;;;;;;;12.40;8.18;;;;;;;1.79;90.33;99198.19;4080171;29;20210;-95
2023/12/19 03:04:32;;;;;;;9.85;7.93;;;;;;;1.83;90.60;99196.38;4080253;29;20329;-96
2023/12/19 03:06:35;;;;;;;9.73;7.50;;;;;;;1.85;90.04;99199.78;4096188;28;20668;-96
2023/12/19 03:08:39;;;;;;;10.68;7.00;;;;;;;1.85;89.88;99200.66;4095803;28;20205;-95
2023/12/19 03:10:42;;;;;;;11.07;7.60;;;;;;;1.83;89.47;99192.09;4077547;29;20596;-96
2023/12/19 03:12:47;;;;;;;10.55;7.30;;;;;;;1.85;89.33;99186.91;4071389;29;20261;-96
2023/12/19 03:14:50;;;;;;;10.75;7.93;;;;;;;1.89;89.37;99192.00;4079796;29;20202;-96
2023/12/19 03:16:53;;;;;;;12.88;8.15;;;;;;;1.88;89.79;99193.72;4097432;28;20297;-96
2023/12/19 03:18:57;;;;;;;11.75;7.72;;;;;;;1.86;89.20;99184.31;4093748;28;20220;-94
2023/12/19 03:21:00;;;;;;;9.80;7.30;;;;;;;1.85;89.48;99187.78;4084198;29;20293;-95
2023/12/19 03:23:04;;;;;;;9.65;7.43;;;;;;;1.87;89.75;99191.19;4094633;28;20205;-95
2023/12/19 03:25:08;;;;;;;10.13;6.90;;;;;;;1.87;90.01;99181.72;4067226;29;21124;-93
2023/12/19 03:27:10;;;;;;;9.85;7.10;;;;;;;1.92;89.71;99174.81;4092240;29;20216;-93
2023/12/19 03:29:15;;;;;;;10.82;7.13;;;;;;;1.88;89.61;99170.59;4064895;29;20219;-94
2023/12/19 03:31:18;;;;;;;15.40;7.75;;;;;;;1.85;89.19;99159.50;4079966;29;20297;-95
2023/12/19 03:33:20;;;;;;;11.70;7.38;;;;;;;1.82;89.46;99149.28;4078886;29;20198;-94
2023/12/19 03:35:24;;;;;;;11.02;7.18;;;;;;;1.83;90.68;99145.81;4080023;29;20213;-94
2023/12/19 03:37:27;;;;;;;12.13;7.63;;;;;;;1.84;90.72;99149.25;4080907;29;20637;-94
2023/12/19 03:39:29;;;;;;;10.75;7.75;;;;;;;1.87;91.24;99158.59;4075342;29;20221;-94
2023/12/19 03:41:32;;;;;;;10.93;7.45;;;;;;;1.87;90.61;99158.59;4078003;29;20217;-93
2023/12/19 03:43:36;;;;;;;12.30;7.53;;;;;;;1.83;90.83;99160.41;4075801;29;20221;-95
2023/12/19 03:45:40;;;;;;;10.07;7.45;;;;;;;1.86;90.30;99161.19;4091138;28;20276;-94
2023/12/19 03:47:43;;;;;;;9.35;7.57;;;;;;;1.90;89.99;99167.97;4075960;29;20205;-94
2023/12/19 03:49:47;;;;;;;14.32;8.57;;;;;;;1.91;89.86;99177.41;4056610;29;20239;-92
2023/12/19 03:51:50;;;;;;;12.52;8.95;;;;;;;1.89;90.39;99174.88;4081528;29;20660;-96
2023/12/19 03:53:54;;;;;;;12.25;8.93;;;;;;;1.93;90.63;99178.22;4078606;29;20248;-95
2023/12/19 03:55:57;;;;;;;11.57;8.50;;;;;;;1.92;90.36;99166.22;4094073;28;20323;-96
2023/12/19 03:58:00;;;;;;;11.68;8.20;;;;;;;1.93;90.29;99162.78;4082127;29;20209;-95
2023/12/19 04:00:06;;;;;;;12.48;7.63;;;;;;;1.86;89.38;99145.75;4090683;28;20308;-93
2023/12/19 04:02:12;;;;;;;13.48;8.15;;;;;;;1.88;89.73;99144.88;4080033;29;20559;-94
2023/12/19 04:04:17;;;;;;;9.95;7.53;;;;;;;1.87;88.53;99156.03;4079932;29;20286;-95
2023/12/19 04:06:20;;;;;;;13.38;8.35;;;;;;;1.78;88.45;99150.19;4064285;29;20294;-94
2023/12/19 04:08:25;;;;;;;11.40;8.15;;;;;;;1.74;89.08;99145.13;4078857;29;20213;-96
2023/12/19 04:10:29;;;;;;;11.45;8.10;;;;;;;1.69;88.95;99140.06;4091822;28;20202;-95
2023/12/19 04:12:32;;;;;;;13.13;8.20;;;;;;;1.68;89.36;99132.38;4077074;29;20293;-96
2023/12/19 04:14:34;;;;;;;11.23;8.32;;;;;;;1.66;88.80;99137.53;4080050;29;20206;-96
2023/12/19 04:16:38;;;;;;;10.48;7.93;;;;;;;1.65;89.21;99129.88;4094142;28;20212;-96
2023/12/19 04:18:43;;;;;;;11.20;8.13;;;;;;;1.67;89.14;99144.41;4081609;29;20296;-95
2023/12/19 04:20:46;;;;;;;11.55;8.27;;;;;;;1.61;89.03;99138.47;4077392;29;20202;-96
2023/12/19 04:22:50;;;;;;;11.20;7.72;;;;;;;1.57;89.41;99131.72;4059192;29;20211;-95
2023/12/19 04:24:52;;;;;;;12.23;7.68;;;;;;;1.62;89.71;99124.78;4079300;29;20236;-96
2023/12/19 04:26:55;;;;;;;10.57;7.55;;;;;;;1.64;89.04;99130.72;4077769;29;20229;-96
2023/12/19 04:28:58;;;;;;;11.70;8.68;;;;;;;1.62;89.29;99135.88;4064162;29;20921;-94
2023/12/19 04:31:01;;;;;;;11.35;8.52;;;;;;;1.62;90.16;99132.47;4087417;28;20209;-94
2023/12/19 04:33:05;;;;;;;13.07;9.18;;;;;;;1.62;89.56;99130.75;4076178;29;20214;-96
2023/12/19 04:35:12;;;;;;;9.45;7.53;;;;;;;1.64;89.41;99125.59;4076734;29;20202;-96
2023/12/19 04:37:15;;;;;;;14.63;8.15;;;;;;;1.62;89.18;99128.19;4091943;28;20313;-96
2023/12/19 04:39:18;;;;;;;11.77;7.30;;;;;;;1.62;89.16;99129.91;4080669;29;20292;-96
2023/12/19 04:41:22;;;;;;;11.55;7.65;;;;;;;1.62;89.21;99124.78;4080408;29;20662;-96
2023/12/19 04:43:25;;;;;;;15.05;7.88;;;;;;;1.63;88.70;99122.19;4067031;29;20228;-96
2023/12/19 04:45:27;;;;;;;11.10;7.28;;;;;;;1.63;88.70;99122.19;4069332;29;20302;-96
2023/12/19 04:47:32;;;;;;;13.85;7.75;;;;;;;1.60;88.99;99131.66;4068957;29;20215;-95
2023/12/19 04:49:35;;;;;;;12.55;8.40;;;;;;;1.61;89.39;99129.06;4066632;29;20207;-96
2023/12/19 04:51:40;;;;;;;11.93;7.80;;;;;;;1.63;89.50;99129.03;4066577;29;20207;-96
2023/12/19 04:53:43;;;;;;;11.38;7.40;;;;;;;1.61;88.90;99118.78;4083604;29;20713;-96
2023/12/19 04:55:47;;;;;;;11.07;7.18;;;;;;;1.60;88.10;99121.38;4078064;29;20211;-96
2023/12/19 04:57:49;;;;;;;10.80;7.32;;;;;;;1.51;88.29;99106.97;4084501;28;20270;-96
2023/12/19 04:59:53;;;;;;;11.15;7.40;;;;;;;1.53;89.04;99109.50;4100498;28;20666;-95
2023/12/19 05:01:56;;;;;;;10.40;7.80;;;;;;;1.57;88.73;99095.75;4062794;28;20207;-96
2023/12/19 05:03:59;;;;;;;10.88;6.93;;;;;;;1.58;88.68;99082.88;4082620;29;20206;-96
2023/12/19 05:06:02;;;;;;;8.20;7.07;;;;;;;1.58;88.39;99076.84;4080028;29;20222;-96
2023/12/19 05:08:07;;;;;;;9.82;6.80;;;;;;;1.57;88.89;99073.44;4068304;29;20215;-96
2023/12/19 05:10:10;;;;;;;12.40;7.55;;;;;;;1.63;88.79;99083.63;4096301;28;20216;-96
2023/12/19 05:12:14;;;;;;;11.02;7.18;;;;;;;1.60;89.19;99081.09;4066447;29;20235;-96
2023/12/19 05:14:16;;;;;;;8.57;6.85;;;;;;;1.56;89.17;99079.47;4065066;29;20706;-95
2023/12/19 05:16:20;;;;;;;11.02;7.40;;;;;;;1.54;88.43;99082.94;4065320;29;20298;-95
2023/12/19 05:18:23;;;;;;;9.75;6.93;;;;;;;1.49;88.05;99090.72;4096390;28;20250;-96
2023/12/19 05:20:27;;;;;;;11.18;8.32;;;;;;;1.39;88.99;99076.34;4100810;28;20613;-95
2023/12/19 05:22:31;;;;;;;13.25;8.40;;;;;;;1.40;88.35;99070.34;4084408;28;20294;-96
2023/12/19 05:24:38;;;;;;;12.30;7.75;;;;;;;1.28;87.53;99056.84;4080644;29;20198;-96
2023/12/19 05:26:41;;;;;;;10.57;6.93;;;;;;;1.31;87.38;99068.78;4066416;29;20267;-94
2023/12/19 05:28:44;;;;;;;9.27;6.57;;;;;;;1.28;88.37;99074.84;4100429;28;20606;-95
2023/12/19 05:30:57;;;;;;;9.23;6.82;;;;;;;1.33;88.61;99077.31;4088781;29;20638;-96
2023/12/19 05:33:02;;;;;;;10.70;8.10;;;;;;;1.30;89.01;99075.66;4072222;29;20247;-96
2023/12/19 05:35:07;;;;;;;11.35;8.27;;;;;;;1.30;88.75;99072.25;4071458;29;20617;-97
2023/12/19 05:37:11;;;;;;;15.13;10.45;;;;;;;1.31;89.43;99079.03;4099516;28;20588;-96
2023/12/19 05:39:17;;;;;;;10.90;7.80;;;;;;;1.32;89.06;99073.06;4083880;29;20213;-94
2023/12/19 05:41:22;;;;;;;12.23;7.90;;;;;;;1.33;88.62;99056.78;4080311;29;20720;-96
2023/12/19 05:43:25;;;;;;;10.25;8.35;;;;;;;1.35;88.20;99065.28;4065592;29;20207;-96
2023/12/19 05:45:31;;;;;;;9.48;7.57;;;;;;;1.38;88.91;99067.81;4065616;29;20294;-96
2023/12/19 05:47:35;;;;;;;10.48;7.35;;;;;;;1.36;88.92;99069.56;4093227;28;20264;-96
2023/12/19 05:49:38;;;;;;;12.55;8.02;;;;;;;1.39;88.92;99069.53;4065714;29;20250;-96
2023/12/19 05:51:42;;;;;;;13.35;8.50;;;;;;;1.34;89.73;99071.28;4079986;29;20297;-96
2023/12/19 05:53:45;;;;;;;10.15;6.90;;;;;;;1.32;89.63;99068.75;4084064;29;20220;-96
2023/12/19 05:55:48;;;;;;;10.05;7.43;;;;;;;1.35;88.95;99067.88;4092203;28;20212;-94
2023/12/19 05:57:53;;;;;;;13.65;8.30;;;;;;;1.28;87.49;99061.13;4093560;28;20216;-96
2023/12/19 05:59:56;;;;;;;10.85;7.25;;;;;;;1.21;87.25;99059.53;4081952;29;20206;-96
2023/12/19 06:02:00;;;;;;;10.40;7.47;;;;;;;1.19;87.65;99071.53;4095436;28;20218;-96
2023/12/19 06:04:03;;;;;;;12.02;7.70;;;;;;;1.18;87.49;99069.88;4093297;28;20206;-95
2023/12/19 06:06:06;;;;;;;8.90;7.40;;;;;;;1.18;87.54;99072.44;4080392;29;20230;-96
2023/12/19 06:08:09;;;;;;;10.40;7.15;;;;;;;1.17;87.28;99065.59;4079789;29;21211;-96
2023/12/19 06:10:13;;;;;;;10.10;7.72;;;;;;;1.15;87.39;99068.19;4063085;29;20199;-96
2023/12/19 06:12:17;;;;;;;11.60;7.55;;;;;;;1.19;87.68;99064.69;4064781;29;20198;-96
2023/12/19 06:14:22;;;;;;;14.30;8.13;;;;;;;1.20;88.25;99073.25;4078768;29;20217;-96
2023/12/19 06:16:25;;;;;;;9.85;7.97;;;;;;;1.22;87.20;99076.63;4074559;29;20212;-96
2023/12/19 06:18:27;;;;;;;12.27;7.38;;;;;;;1.18;87.69;99073.28;4082034;29;20309;-96
2023/12/19 06:20:31;;;;;;;12.38;9.00;;;;;;;1.21;87.55;99064.69;4075094;29;20233;-95
2023/12/19 06:22:34;;;;;;;13.23;8.35;;;;;;;1.19;88.54;99074.97;4059811;29;20210;-93
2023/12/19 06:24:37;;;;;;;13.85;9.02;;;;;;;1.19;88.08;99081.81;4060918;29;20767;-93
2023/12/19 06:26:41;;;;;;;12.60;8.75;;;;;;;1.23;88.47;99088.59;4079446;29;20265;-92
2023/12/19 06:28:44;;;;;;;13.27;9.05;;;;;;;1.26;88.55;99093.69;4080982;28;20230;-95
2023/12/19 06:30:49;;;;;;;11.57;8.43;;;;;;;1.27;88.48;99095.41;4073834;29;20222;-95
2023/12/19 06:32:53;;;;;;;11.73;8.40;;;;;;;1.26;87.64;99101.41;4076422;29;20595;-94
2023/12/19 06:34:58;;;;;;;11.27;8.30;;;;;;;1.20;87.18;99098.94;4096211;28;20269;-96
2023/12/19 06:37:02;;;;;;;10.85;7.70;;;;;;;1.15;87.18;99091.28;4075620;28;20218;-96
2023/12/19 06:39:06;;;;;;;12.02;8.05;;;;;;;1.13;87.17;99093.06;4078697;29;20221;-95
2023/12/19 06:41:09;;;;;;;13.48;8.60;;;;;;;1.17;87.81;99086.13;4080819;29;20238;-95
2023/12/19 06:43:13;;;;;;;11.20;7.85;;;;;;;1.16;88.27;99087.88;4067976;29;20236;-96
2023/12/19 06:45:18;;;;;;;11.25;7.57;;;;;;;1.23;88.65;99094.59;4065976;29;20215;-96
2023/12/19 06:47:23;;;;;;;9.80;6.97;;;;;;;1.24;88.52;99101.44;4084882;29;20253;-96
2023/12/19 06:49:27;;;;;;;11.80;7.40;;;;;;;1.25;88.57;99085.16;4081703;29;20211;-96
2023/12/19 06:51:31;;;;;;;10.00;7.60;;;;;;;1.27;89.00;99092.84;4081861;29;20234;-96
2023/12/19 06:53:34;;;;;;;10.25;6.85;;;;;;;1.24;88.41;99092.88;4082869;29;20293;-96
2023/12/19 06:55:38;;;;;;;11.38;8.63;;;;;;;1.24;88.88;99090.31;4081198;29;20205;-96
2023/12/19 06:57:41;;;;;;;9.73;7.35;;;;;;;1.19;88.78;99092.09;4063514;29;20207;-96
2023/12/19 06:59:44;;;;;;;11.32;8.18;;;;;;;1.19;88.84;99084.38;4064988;29;20213;-96
2023/12/19 07:01:48;;;;;;;10.18;7.20;;;;;;;1.22;89.60;99082.63;4092007;28;20218;-96
2023/12/19 07:03:52;;;;;;;11.85;8.88;;;;;;;1.25;89.14;99082.59;4081559;29;20723;-96
2023/12/19 07:05:56;;;;;;;14.80;9.15;;;;;;;1.27;89.69;99083.41;4062809;29;20248;-96
2023/12/19 07:08:00;;;;;;;13.50;8.27;;;;;;;1.31;89.07;99081.63;4078353;29;20683;-93
2023/12/19 07:10:04;;;;;;;14.50;8.27;;;;;;;1.24;88.99;99082.59;4081064;29;20210;-94
2023/12/19 07:12:07;;;;;;;14.85;9.45;;;;;;;1.23;89.06;99079.16;4081117;29;20756;-92
2023/12/19 07:14:11;;;;;;;14.98;10.10;;;;;;;1.26;89.47;99068.84;4094690;28;20217;-90
2023/12/19 07:16:14;;;;;;;13.85;9.55;;;;;;;1.30;88.90;99072.25;4080951;29;20246;-94
2023/12/19 07:18:17;;;;;;;16.95;11.00;;;;;;;1.29;88.64;99071.38;4095498;29;20209;-94
2023/12/19 07:20:22;;;;;;;18.85;11.02;;;;;;;1.30;88.77;99067.09;4078505;29;20210;-92
2023/12/19 07:22:24;;;;;;;21.02;13.25;;;;;;;1.33;89.22;99069.63;4077429;29;20317;-93
2023/12/19 07:24:28;;;;;;;20.25;13.60;;;;;;;1.36;89.21;99084.97;4086652;28;20708;-90
2023/12/19 07:26:32;;;;;;;19.00;13.50;;;;;;;1.39;89.93;99101.19;4094465;28;20691;-92
2023/12/19 07:28:35;;;;;;;30.15;21.65;;;;;;;1.39;89.57;99109.72;4096736;28;20217;-92
2023/12/19 07:30:38;;;;;;;13.30;10.30;;;;;;;1.42;89.98;99125.09;4093233;29;20241;-91
2023/12/19 07:32:42;;;;;;;19.15;12.32;;;;;;;1.48;90.09;99132.69;4072559;29;20250;-91
2023/12/19 07:34:46;;;;;;;17.15;11.63;;;;;;;1.49;89.02;99115.59;4094435;28;20209;-90
2023/12/19 07:36:51;;;;;;;13.23;9.13;;;;;;;1.48;89.53;99104.44;4095969;28;20267;-93
2023/12/19 07:38:57;;;;;;;15.18;9.82;;;;;;;1.44;88.52;99102.81;4094893;28;20206;-93
2023/12/19 07:41:00;;;;;;;12.85;9.60;;;;;;;1.43;88.88;99106.25;4063539;29;20226;-92
2023/12/19 07:43:03;;;;;;;13.32;9.95;;;;;;;1.45;88.46;99127.63;4074802;29;20219;-92
2023/12/19 07:45:08;;;;;;;18.70;13.15;;;;;;;1.42;88.48;99137.94;4078745;29;20206;-91
2023/12/19 07:47:11;;;;;;;25.25;15.10;;;;;;;1.44;89.40;99138.78;4055982;29;20903;-91
2023/12/19 07:49:14;;;;;;;22.77;13.85;;;;;;;1.48;89.79;99135.28;4076575;29;20237;-90
2023/12/19 07:51:18;;;;;;;14.48;9.40;;;;;;;1.53;89.46;99130.06;4079260;29;20627;-94
2023/12/19 07:53:23;;;;;;;13.85;8.60;;;;;;;1.55;88.54;99139.44;4064914;29;20731;-92
2023/12/19 07:55:26;;;;;;;18.20;10.95;;;;;;;1.66;89.30;99140.13;4061259;29;20302;-95
2023/12/19 07:57:28;;;;;;;18.08;12.70;;;;;;;1.83;89.64;99140.66;4079030;29;20217;-94
2023/12/19 07:59:32;;;;;;;19.23;11.73;;;;;;;2.00;90.05;99139.50;4095361;28;20216;-95
2023/12/19 08:01:34;;;;;;;15.63;11.25;;;;;;;2.16;89.55;99138.34;4061235;29;20262;-94
2023/12/19 08:03:38;;;;;;;17.23;11.32;;;;;;;2.25;90.04;99137.31;4094908;29;20205;-94
2023/12/19 08:05:45;;;;;;;14.75;10.50;;;;;;;2.33;89.74;99141.47;4083668;29;20237;-94
2023/12/19 08:07:48;;;;;;;13.93;9.70;;;;;;;2.42;88.68;99144.69;4093523;28;20259;-93
2023/12/19 08:09:53;;;;;;;17.27;10.68;;;;;;;2.51;89.29;99139.38;4081317;29;20242;-92
2023/12/19 08:11:57;;;;;;;13.90;9.40;;;;;;;2.64;90.09;99143.38;4079475;29;20257;-96
2023/12/19 08:14:00;;;;;;;12.93;9.35;;;;;;;2.75;90.04;99149.13;4080837;29;20304;-94
2023/12/19 08:16:04;;;;;;;13.60;9.60;;;;;;;2.80;89.72;99140.44;4077979;29;20207;-92
2023/12/19 08:18:08;;;;;;;14.77;10.05;;;;;;;2.91;89.75;99147.97;4092014;28;20209;-95
2023/12/19 08:20:17;;;;;;;15.32;9.80;;;;;;;3.00;90.13;99147.75;4069049;29;20279;-96
2023/12/19 08:22:23;;;;;;;14.75;10.70;;;;;;;3.05;89.89;99140.78;4084648;29;20227;-95
2023/12/19 08:24:26;;;;;;;15.95;10.05;;;;;;;3.05;89.49;99145.91;4064158;29;20211;-95
2023/12/19 08:26:31;;;;;;;15.38;10.50;;;;;;;2.98;89.59;99157.25;4078603;29;20203;-95
2023/12/19 08:28:34;;;;;;;13.75;9.63;;;;;;;2.94;90.33;99137.59;4077150;29;20229;-92
2023/12/19 08:30:40;;;;;;;14.10;9.70;;;;;;;2.89;89.56;99142.00;4075596;29;20198;-92
2023/12/19 08:32:44;;;;;;;13.73;9.57;;;;;;;2.87;90.42;99144.59;4066914;29;20264;-94
2023/12/19 08:34:48;;;;;;;14.40;10.05;;;;;;;3.00;90.00;99137.47;4082469;29;20218;-96
2023/12/19 08:36:51;;;;;;;14.45;10.38;;;;;;;3.13;90.49;99123.41;4083768;29;20221;-94
2023/12/19 08:38:55;;;;;;;14.60;10.20;;;;;;;3.21;89.85;99132.66;4076561;29;21536;-94
2023/12/19 08:40:57;;;;;;;17.13;11.45;;;;;;;3.34;89.22;99127.19;4093875;28;20276;-95
2023/12/19 08:43:01;;;;;;;16.60;12.02;;;;;;;3.51;89.98;99129.38;4093535;28;20296;-96
2023/12/19 08:45:04;;;;;;;14.00;10.43;;;;;;;3.63;89.73;99129.91;4076710;29;20210;-96
2023/12/19 08:47:08;;;;;;;15.25;10.95;;;;;;;3.59;89.03;99117.97;4065054;29;20212;-91
2023/12/19 08:49:11;;;;;;;16.92;11.65;;;;;;;3.54;88.93;99117.25;4077604;29;20214;-96
2023/12/19 08:51:15;;;;;;;14.23;10.52;;;;;;;3.54;89.06;99114.66;4065588;29;20207;-89
2023/12/19 08:53:19;;;;;;;15.48;11.57;;;;;;;3.43;87.67;99111.50;4069638;29;20200;-93
2023/12/19 08:55:22;;;;;;;14.80;10.90;;;;;;;3.40;88.21;99106.44;4083427;29;20221;-92
2023/12/19 08:57:25;;;;;;;14.45;10.85;;;;;;;3.43;88.28;99108.09;4082514;29;20222;-95
2023/12/19 08:59:31;;;;;;;17.90;13.18;;;;;;;3.59;88.60;99102.50;4081153;29;20209;-92
2023/12/19 09:01:35;;;;;;;14.35;10.43;;;;;;;3.77;89.17;99095.19;4064527;29;20654;-90
2023/12/19 09:03:38;;;;;;;15.57;10.23;;;;;;;3.93;89.50;99099.03;4090433;28;20198;-92
2023/12/19 09:05:42;;;;;;;15.80;10.85;;;;;;;4.07;89.85;99103.84;4108117;28;20924;-92
2023/12/19 09:07:48;;;;;;;18.30;11.50;;;;;;;4.21;89.22;99106.00;4109415;28;20248;-96
2023/12/19 09:10:01;;;;;;;13.65;11.00;;;;;;;4.32;88.05;99105.72;4080883;29;20214;-95
2023/12/19 09:12:05;;;;;;;14.18;10.65;;;;;;;4.47;88.94;99105.28;4090855;28;20213;-93
2023/12/19 09:14:11;;;;;;;12.77;10.13;;;;;;;4.53;87.82;99103.38;4079144;29;20610;-88
2023/12/19 09:16:16;;;;;;;15.80;10.52;;;;;;;4.65;88.89;99100.44;4094519;28;20217;-89
2023/12/19 09:18:19;;;;;;;13.45;10.18;;;;;;;4.75;88.13;99105.31;4060952;29;20294;-93
2023/12/19 09:20:24;;;;;;;14.40;10.20;;;;;;;4.84;88.38;99099.88;4109314;28;20893;-92
2023/12/19 09:22:26;;;;;;;14.32;11.30;;;;;;;4.96;87.53;99096.06;4066586;29;20226;-92
2023/12/19 09:24:31;;;;;;;13.60;10.60;;;;;;;5.06;87.90;99095.72;4076250;29;20202;-95
2023/12/19 09:26:34;;;;;;;14.48;11.40;;;;;;;5.18;87.53;99088.44;4096959;28;20328;-94
2023/12/19 09:28:37;;;;;;;13.63;10.55;;;;;;;5.25;86.84;99089.94;4078746;29;20369;-96
2023/12/19 09:30:40;;;;;;;17.40;10.52;;;;;;;5.32;86.35;99091.47;4077675;29;20210;-95
2023/12/19 09:32:46;;;;;;;12.55;10.90;;;;;;;5.40;86.69;99079.13;4061567;29;20258;-96
2023/12/19 09:34:50;;;;;;;14.05;11.50;;;;;;;5.47;87.16;99079.75;4067439;29;20212;-96
2023/12/19 09:36:54;;;;;;;13.18;10.15;;;;;;;5.55;86.85;99082.94;4069485;29;20343;-96
2023/12/19 09:38:59;;;;;;;16.88;11.45;;;;;;;5.63;85.85;99077.47;4084030;29;20206;-96
2023/12/19 09:41:03;;;;;;;16.33;12.48;;;;;;;5.67;85.47;99073.88;4078579;29;20207;-96